createdAt,value
2019-04-10T00:03:00.201Z,11.90
2019-04-10T00:05:38.506Z,11.10
2019-04-10T00:08:06.242Z,12.20
2019-04-10T00:10:32.589Z,10.97
2019-04-10T00:13:14.288Z,10.93
2019-04-10T00:18:44.821Z,10.27
2019-04-10T00:27:02.265Z,12.73
2019-04-10T00:30:02.915Z,10.43
2019-04-10T00:32:23.703Z,11.37
2019-04-10T00:35:10.805Z,11.33
2019-04-10T02:28:15.120Z,7.47
2019-04-10T02:31:15.674Z,7.70
2019-04-10T02:33:19.793Z,7.67
2019-04-10T02:35:48.448Z,8.30
2019-04-10T02:38:30.673Z,8.17
2019-04-10T02:40:55.609Z,7.40
2019-04-10T02:43:21.048Z,8.13
2019-04-10T02:46:08.199Z,7.70
2019-04-10T04:18:29.608Z,9.80
2019-04-10T04:24:09.623Z,7.67
2019-04-10T04:33:38.673Z,8.03
2019-04-10T04:35:56.976Z,8.00
2019-04-10T04:38:43.143Z,8.93
2019-04-10T04:41:00.440Z,8.60
2019-04-10T04:43:49.069Z,7.77
2019-04-10T04:46:40.699Z,7.57
2019-04-10T04:49:44.422Z,7.90
2019-04-10T04:52:28.829Z,7.40
2019-04-10T04:55:31.024Z,7.30
2019-04-10T05:04:55.919Z,8.47
2019-04-10T05:07:22.386Z,6.80
2019-04-10T05:10:11.157Z,8.60
2019-04-10T05:13:38.332Z,6.97
2019-04-10T05:16:52.065Z,7.23
2019-04-10T05:19:54.912Z,6.37
2019-04-10T05:26:00.505Z,5.43
2019-04-10T05:32:42.106Z,5.70
2019-04-10T05:35:50.816Z,6.47
2019-04-10T05:41:52.317Z,5.73
2019-04-10T05:47:54.771Z,4.60
2019-04-10T05:55:52.145Z,5.37
2019-04-10T06:03:16.833Z,5.40
2019-04-10T06:05:42.246Z,4.80
2019-04-10T06:08:26.358Z,4.40
2019-04-10T06:14:22.488Z,5.20
2019-04-10T06:16:32.282Z,4.33
2019-04-10T06:19:11.886Z,5.00
2019-04-10T06:25:39.475Z,5.37
2019-04-10T06:28:50.523Z,5.63
2019-04-10T06:34:50.175Z,5.70
2019-04-10T06:37:34.528Z,6.57
2019-04-10T06:40:40.457Z,5.50
2019-04-10T06:43:41.228Z,7.63
2019-04-10T06:46:10.403Z,6.70
2019-04-10T06:48:32.140Z,6.97
2019-04-10T06:50:47.406Z,5.83
2019-04-10T06:53:37.319Z,7.40
2019-04-10T06:56:27.164Z,7.07
2019-04-10T06:59:07.291Z,6.13
2019-04-10T07:01:50.474Z,6.50
2019-04-10T07:04:48.503Z,6.63
2019-04-10T07:07:49.586Z,7.60
2019-04-10T07:10:33.542Z,7.43
2019-04-10T07:13:37.637Z,6.43
2019-04-10T07:16:09.546Z,6.40
2019-04-10T07:18:50.885Z,6.80
2019-04-10T07:22:09.836Z,7.40
2019-04-10T07:25:45.448Z,7.20
2019-04-10T07:27:36.924Z,7.73
2019-04-10T07:30:41.880Z,6.83
2019-04-10T07:33:26.619Z,6.73
2019-04-10T07:36:12.539Z,7.30
2019-04-10T07:41:07.112Z,7.90
2019-04-10T07:43:46.803Z,7.30
2019-04-10T07:46:46.532Z,6.90
2019-04-10T07:49:50.346Z,7.60
2019-04-10T07:52:16.868Z,8.67
2019-04-10T07:57:53.178Z,7.47
2019-04-10T08:00:39.408Z,7.33
2019-04-10T08:03:33.167Z,7.93
2019-04-10T08:06:02.370Z,8.07
2019-04-10T08:14:46.358Z,8.40
2019-04-10T08:17:37.450Z,7.83
2019-04-10T08:20:11.112Z,9.23
2019-04-10T08:22:37.111Z,8.57
2019-04-10T08:27:47.052Z,8.63
2019-04-10T08:30:34.895Z,7.93
2019-04-10T08:33:28.147Z,8.13
2019-04-10T08:36:03.200Z,8.70
2019-04-10T08:41:23.969Z,8.37
2019-04-10T08:43:45.969Z,6.63
2019-04-10T08:46:10.740Z,8.60
2019-04-10T08:48:39.186Z,9.33
2019-04-10T08:51:12.225Z,10.13
2019-04-10T08:54:00.670Z,9.00
2019-04-10T08:56:56.982Z,8.00
2019-04-10T08:59:38.251Z,7.13
2019-04-10T09:02:13.739Z,8.30
2019-04-10T09:04:51.694Z,9.20
2019-04-10T09:07:22.100Z,7.93
2019-04-10T09:10:02.344Z,9.60
2019-04-10T09:12:43.035Z,9.17
2019-04-10T09:15:01.323Z,9.40
2019-04-10T09:17:09.011Z,8.30
2019-04-10T09:19:24.066Z,8.93
2019-04-10T09:21:42.087Z,8.40
2019-04-10T09:24:06.022Z,7.60
2019-04-10T09:26:33.495Z,8.50
2019-04-10T09:28:57.067Z,10.57
2019-04-10T09:31:33.677Z,8.50
2019-04-10T09:33:51.956Z,6.10
2019-04-10T09:36:36.166Z,8.47
2019-04-10T09:39:11.553Z,8.63
2019-04-10T09:41:30.004Z,9.60
2019-04-10T09:43:32.037Z,8.80
2019-04-10T09:45:56.909Z,7.40
2019-04-10T09:48:35.850Z,8.80
2019-04-10T09:50:44.453Z,7.70
2019-04-10T09:53:17.160Z,7.73
2019-04-10T09:55:38.388Z,7.77
2019-04-10T09:58:06.763Z,7.30
2019-04-10T10:00:40.697Z,6.80
2019-04-10T10:03:05.624Z,6.13
2019-04-10T10:05:53.069Z,6.50
2019-04-10T10:08:31.635Z,8.83
2019-04-10T10:11:06.515Z,7.70
2019-04-10T10:13:10.434Z,7.80
2019-04-10T10:15:16.824Z,5.87
2019-04-10T10:17:34.827Z,8.30
2019-04-10T10:19:42.959Z,7.90
2019-04-10T10:22:03.015Z,7.47
2019-04-10T10:24:38.472Z,7.47
2019-04-10T10:27:05.260Z,7.80
2019-04-10T10:29:28.049Z,7.70
2019-04-10T10:31:38.028Z,9.17
2019-04-10T10:34:17.185Z,8.67
2019-04-10T10:39:43.572Z,8.97
2019-04-10T10:42:13.706Z,8.23
2019-04-10T10:44:44.063Z,8.67
2019-04-10T10:47:26.179Z,5.67
2019-04-10T10:50:06.640Z,8.10
2019-04-10T10:52:52.452Z,8.03
2019-04-10T10:55:32.210Z,7.33
2019-04-10T10:58:11.518Z,8.93
2019-04-10T11:03:30.030Z,8.50
2019-04-10T11:06:02.470Z,8.03
2019-04-10T11:08:59.639Z,6.90
2019-04-10T11:11:52.004Z,8.80
2019-04-10T11:14:49.717Z,7.57
2019-04-10T11:18:22.152Z,7.87
2019-04-10T11:20:15.278Z,7.70
2019-04-10T11:22:31.539Z,7.23
2019-04-10T11:25:01.544Z,8.50
2019-04-10T11:27:06.400Z,9.07
2019-04-10T11:29:11.822Z,8.63
2019-04-10T11:31:29.350Z,9.47
2019-04-10T11:34:00.329Z,8.57
2019-04-10T11:36:48.755Z,8.80
2019-04-10T11:42:09.927Z,8.47
2019-04-10T11:44:27.271Z,8.73
2019-04-10T11:46:58.838Z,8.80
2019-04-10T11:49:17.816Z,9.17
2019-04-10T11:52:10.357Z,9.57
2019-04-10T11:54:46.320Z,6.53
2019-04-10T11:57:20.428Z,9.47
2019-04-10T12:00:12.032Z,8.90
2019-04-10T12:03:08.355Z,8.90
2019-04-10T12:05:49.117Z,9.77
2019-04-10T12:11:19.825Z,8.40
2019-04-10T12:13:51.032Z,9.10
2019-04-10T12:16:12.587Z,8.13
2019-04-10T12:21:24.002Z,8.87
2019-04-10T12:26:52.932Z,7.93
2019-04-10T12:29:29.019Z,8.50
2019-04-10T12:31:44.402Z,7.87
2019-04-10T12:34:32.025Z,7.90
2019-04-10T12:37:02.776Z,7.27
2019-04-10T12:39:09.324Z,7.30
2019-04-10T12:41:43.590Z,7.87
2019-04-10T12:44:03.491Z,7.20
2019-04-10T12:46:33.688Z,6.83
2019-04-10T12:49:24.076Z,7.00
2019-04-10T13:00:11.796Z,6.80
2019-04-10T13:02:16.349Z,6.80
2019-04-10T13:04:20.947Z,6.40
2019-04-10T13:06:46.826Z,7.43
2019-04-10T13:09:44.288Z,6.67
2019-04-10T13:12:31.886Z,7.57
2019-04-10T13:18:28.135Z,6.83
2019-04-10T13:20:55.956Z,7.00
2019-04-10T13:23:20.617Z,6.77
2019-04-10T13:26:00.979Z,7.27
2019-04-10T13:28:41.973Z,6.80
2019-04-10T13:31:17.166Z,7.13
2019-04-10T13:33:34.044Z,6.73
2019-04-10T13:36:17.600Z,7.87
2019-04-10T13:38:49.260Z,8.40
2019-04-10T13:41:20.753Z,8.00
2019-04-10T13:43:22.084Z,8.53
2019-04-10T13:45:31.434Z,6.67
2019-04-10T13:47:36.601Z,7.50
2019-04-10T13:49:54.563Z,7.13
2019-04-10T13:52:32.169Z,6.57
2019-04-10T13:55:03.158Z,6.90
2019-04-10T13:57:32.874Z,7.13
2019-04-10T13:59:51.442Z,6.73
2019-04-10T14:02:32.218Z,7.20
2019-04-10T14:04:47.329Z,8.00
2019-04-10T14:07:28.290Z,7.10
2019-04-10T14:10:08.286Z,8.30
2019-04-10T14:12:22.814Z,8.23
2019-04-10T14:15:18.627Z,7.50
2019-04-10T14:17:38.557Z,6.77
2019-04-10T14:20:20.293Z,6.60
2019-04-10T14:23:12.567Z,6.20
2019-04-10T14:25:45.517Z,7.07
2019-04-10T14:28:19.285Z,7.70
2019-04-10T14:30:43.236Z,7.70
2019-04-10T14:33:14.895Z,7.60
2019-04-10T14:35:01.084Z,6.30
2019-04-10T14:37:13.694Z,7.70
2019-04-10T14:39:31.342Z,6.73
2019-04-10T14:41:35.997Z,7.27
2019-04-10T14:43:39.866Z,8.23
2019-04-10T14:46:33.701Z,8.00
2019-04-10T14:47:58.255Z,8.00
2019-04-10T14:50:05.262Z,7.33
2019-04-10T14:52:09.292Z,6.97
2019-04-10T14:54:15.592Z,6.83
2019-04-10T14:56:20.207Z,5.90
2019-04-10T14:58:28.943Z,6.70
2019-04-10T15:00:36.740Z,8.10
2019-04-10T15:02:41.084Z,6.37
2019-04-10T15:04:45.781Z,6.57
2019-04-10T15:06:50.055Z,7.67
2019-04-10T15:08:53.955Z,6.80
2019-04-10T15:10:58.286Z,6.50
2019-04-10T15:13:12.106Z,6.83
2019-04-10T15:15:21.997Z,7.37
2019-04-10T15:17:32.891Z,6.20
2019-04-10T15:19:50.640Z,6.60
2019-04-10T15:21:52.275Z,6.80
2019-04-10T15:24:39.785Z,6.20
2019-04-10T15:27:15.289Z,6.73
2019-04-10T15:29:56.733Z,5.73
2019-04-10T15:32:51.192Z,5.90
2019-04-10T15:35:35.502Z,6.93
2019-04-10T15:38:21.994Z,7.13
2019-04-10T15:40:35.081Z,7.30
2019-04-10T15:42:39.157Z,5.70
2019-04-10T15:44:43.352Z,5.30
2019-04-10T15:46:47.256Z,6.40
2019-04-10T15:48:51.205Z,7.70
2019-04-10T15:50:55.944Z,7.47
2019-04-10T15:53:26.492Z,6.63
2019-04-10T15:56:16.520Z,6.20
2019-04-10T15:58:44.078Z,5.37
2019-04-10T16:01:15.908Z,5.63
2019-04-10T16:03:30.455Z,5.23
2019-04-10T16:05:48.016Z,4.80
2019-04-10T16:08:12.179Z,5.30
2019-04-10T16:10:57.325Z,5.50
2019-04-10T16:13:14.534Z,4.50
2019-04-10T16:15:41.137Z,4.67
2019-04-10T16:21:08.490Z,6.03
2019-04-10T16:24:04.551Z,4.60
2019-04-10T16:26:37.437Z,5.80
2019-04-10T16:29:19.974Z,4.77
2019-04-10T16:32:23.134Z,4.90
2019-04-10T16:34:49.114Z,4.23
2019-04-10T16:36:50.072Z,4.33
2019-04-10T16:39:22.451Z,5.17
2019-04-10T16:41:46.114Z,3.93
2019-04-10T16:44:05.557Z,4.90
2019-04-10T16:46:31.981Z,3.87
2019-04-10T16:49:14.785Z,4.00
2019-04-10T16:51:44.756Z,4.70
2019-04-10T16:54:22.006Z,3.73
2019-04-10T16:56:56.788Z,5.03
2019-04-10T16:59:44.801Z,4.20
2019-04-10T17:02:31.698Z,4.97
2019-04-10T17:08:27.844Z,4.73
2019-04-10T17:11:18.867Z,4.67
2019-04-10T17:16:35.924Z,4.27
2019-04-10T17:19:26.210Z,4.83
2019-04-10T17:22:00.630Z,4.70
2019-04-10T17:27:45.885Z,4.00
2019-04-10T17:30:31.153Z,4.77
2019-04-10T17:39:31.327Z,4.67
2019-04-10T17:42:49.433Z,4.40
2019-04-10T17:45:23.028Z,4.87
2019-04-10T17:48:01.028Z,4.30
2019-04-10T17:57:18.998Z,5.40
2019-04-10T18:00:39.779Z,4.90
2019-04-10T18:03:39.672Z,4.57
2019-04-10T18:05:44.671Z,4.90
2019-04-10T18:08:18.857Z,5.27
2019-04-10T18:11:09.969Z,5.20
2019-04-10T18:14:07.588Z,3.90
2019-04-10T18:16:44.357Z,4.50
2019-04-10T18:19:46.179Z,3.80
2019-04-10T18:22:20.652Z,4.90
2019-04-10T18:24:45.907Z,4.23
2019-04-10T18:27:36.400Z,6.60
2019-04-10T18:30:00.090Z,5.30
2019-04-10T18:32:30.017Z,7.57
2019-04-10T18:34:55.973Z,14.57
2019-04-10T18:37:31.296Z,8.03
2019-04-10T18:42:49.632Z,4.70
2019-04-10T18:53:51.244Z,4.20
2019-04-10T18:59:42.874Z,5.10
2019-04-10T19:02:12.224Z,5.37
2019-04-10T19:04:41.217Z,4.40
2019-04-10T19:07:20.738Z,4.93
2019-04-10T19:12:20.884Z,5.37
2019-04-10T19:14:50.823Z,4.67
2019-04-10T19:17:19.012Z,5.23
2019-04-10T19:19:43.915Z,5.20
2019-04-10T19:22:11.102Z,5.40
2019-04-10T19:24:46.952Z,5.27
2019-04-10T19:27:22.167Z,5.13
2019-04-10T19:30:27.249Z,4.93
2019-04-10T19:32:33.235Z,5.77
2019-04-10T19:35:28.810Z,4.33
2019-04-10T19:37:57.417Z,4.40
2019-04-10T19:40:45.730Z,3.97
2019-04-10T19:43:27.051Z,4.70
2019-04-10T19:46:04.483Z,5.07
2019-04-10T19:48:53.166Z,3.60
2019-04-10T19:51:34.602Z,4.73
2019-04-10T19:54:05.617Z,3.77
2019-04-10T19:56:34.938Z,3.60
2019-04-10T19:59:02.748Z,3.70
2019-04-10T20:01:38.033Z,3.80
2019-04-10T20:04:03.959Z,3.43
2019-04-10T20:06:58.295Z,4.10
2019-04-10T20:12:55.547Z,3.47
2019-04-10T20:15:24.704Z,3.43
2019-04-10T20:21:05.960Z,3.57
2019-04-10T20:23:52.257Z,4.10
2019-04-10T20:26:25.552Z,3.57
2019-04-10T20:29:15.109Z,4.20
2019-04-10T20:31:57.440Z,3.80
2019-04-10T20:34:40.882Z,3.97
2019-04-10T20:37:20.668Z,3.57
2019-04-10T20:39:59.815Z,4.17
2019-04-10T20:42:35.918Z,4.50
2019-04-10T20:45:09.330Z,2.80
2019-04-10T20:47:33.054Z,3.10
2019-04-10T20:50:09.964Z,3.40
2019-04-10T20:52:49.727Z,7.40
2019-04-10T20:55:11.412Z,4.17
2019-04-10T20:57:59.784Z,3.70
2019-04-10T21:00:24.429Z,3.97
2019-04-10T21:02:53.012Z,4.03
2019-04-10T21:05:12.551Z,3.40
2019-04-10T21:08:17.816Z,4.07
2019-04-10T21:10:43.328Z,3.07
2019-04-10T21:13:27.341Z,4.10
2019-04-10T21:15:31.271Z,4.37
2019-04-10T21:17:59.172Z,4.10
2019-04-10T21:20:24.723Z,4.73
2019-04-10T21:22:47.191Z,4.07
2019-04-10T21:25:18.803Z,4.60
2019-04-10T21:27:52.106Z,4.23
2019-04-10T21:30:56.617Z,4.90
2019-04-10T21:33:32.244Z,4.90
2019-04-10T21:36:09.366Z,4.83
2019-04-10T21:38:54.679Z,4.60
2019-04-10T21:41:32.920Z,4.80
2019-04-10T21:43:53.895Z,5.30
2019-04-10T21:46:28.465Z,4.70
2019-04-10T21:48:46.861Z,5.23
2019-04-10T21:51:10.988Z,4.53
2019-04-10T21:53:38.884Z,5.20
2019-04-10T21:56:04.109Z,4.90
2019-04-10T21:58:53.071Z,5.20
2019-04-10T22:01:09.819Z,6.00
2019-04-10T22:03:46.101Z,5.20
2019-04-10T22:06:53.978Z,4.30
2019-04-10T22:09:39.638Z,4.10
2019-04-10T22:12:35.451Z,4.30
2019-04-10T22:15:07.265Z,4.80
2019-04-10T22:17:32.660Z,5.30
2019-04-10T22:20:23.554Z,4.70
2019-04-10T22:22:39.233Z,4.30
2019-04-10T22:25:15.370Z,5.00
2019-04-10T22:27:50.127Z,4.20
2019-04-10T22:30:21.623Z,4.67
2019-04-10T22:32:51.360Z,5.00
2019-04-10T22:35:21.606Z,4.80
2019-04-10T22:40:29.150Z,4.47
2019-04-10T22:43:32.094Z,4.53
2019-04-10T22:45:57.430Z,3.80
2019-04-10T22:48:32.836Z,4.40
2019-04-10T22:50:53.706Z,5.00
2019-04-10T22:53:23.429Z,4.67
2019-04-10T22:55:46.524Z,4.47
2019-04-10T22:58:37.684Z,5.50
2019-04-10T23:01:17.044Z,4.37
2019-04-10T23:03:36.759Z,4.57
2019-04-10T23:06:02.150Z,4.37
2019-04-10T23:08:37.866Z,4.20
2019-04-10T23:11:34.799Z,5.30
2019-04-10T23:14:00.536Z,4.30
2019-04-10T23:16:39.970Z,4.50
2019-04-10T23:19:12.328Z,4.50
2019-04-10T23:22:00.949Z,5.07
2019-04-10T23:24:23.391Z,5.53
2019-04-10T23:27:07.014Z,5.10
2019-04-10T23:29:46.584Z,5.73
2019-04-10T23:32:07.574Z,4.63
2019-04-10T23:34:41.018Z,5.27
2019-04-10T23:37:20.516Z,4.87
2019-04-10T23:39:41.523Z,5.23
2019-04-10T23:42:10.819Z,5.43
2019-04-10T23:44:42.937Z,5.37
2019-04-10T23:47:02.049Z,4.90
2019-04-10T23:49:33.317Z,4.60
2019-04-10T23:51:59.095Z,5.10
2019-04-10T23:54:19.378Z,5.23
2019-04-10T23:56:45.054Z,5.00
2019-04-10T23:59:12.766Z,4.50
